sensor_id;sensor_type;location;lat;lon;timestamp;temperature;humidity
51908;DHT22;39320;53.214;6.556;2024-01-30T00:01:55;7.70;99.90
51908;DHT22;39320;53.214;6.556;2024-01-30T00:04:21;7.70;99.90
51908;DHT22;39320;53.214;6.556;2024-01-30T00:06:46;7.70;99.90
51908;DHT22;39320;53.214;6.556;2024-01-30T00:09:12;8.10;99.90
51908;DHT22;39320;53.214;6.556;2024-01-30T00:11:38;7.70;99.90
51908;DHT22;39320;53.214;6.556;2024-01-30T00:14:04;7.70;99.90
51908;DHT22;39320;53.214;6.556;2024-01-30T00:16:30;7.70;99.90
51908;DHT22;39320;53.214;6.556;2024-01-30T00:18:56;7.70;99.90
51908;DHT22;39320;53.214;6.556;2024-01-30T00:21:22;7.70;99.90
51908;DHT22;39320;53.214;6.556;2024-01-30T00:23:48;7.70;99.90
51908;DHT22;39320;53.214;6.556;2024-01-30T00:26:14;7.70;99.90
51908;DHT22;39320;53.214;6.556;2024-01-30T00:28:43;7.70;99.90
51908;DHT22;39320;53.214;6.556;2024-01-30T00:31:09;7.70;99.90
51908;DHT22;39320;53.214;6.556;2024-01-30T00:33:41;7.70;99.90
51908;DHT22;39320;53.214;6.556;2024-01-30T00:36:08;7.60;99.90
51908;DHT22;39320;53.214;6.556;2024-01-30T00:38:34;7.70;99.90
51908;DHT22;39320;53.214;6.556;2024-01-30T00:41:00;7.60;99.90
51908;DHT22;39320;53.214;6.556;2024-01-30T00:43:27;7.60;99.90
51908;DHT22;39320;53.214;6.556;2024-01-30T00:45:53;7.60;99.90
51908;DHT22;39320;53.214;6.556;2024-01-30T00:48:20;7.70;99.90
51908;DHT22;39320;53.214;6.556;2024-01-30T00:50:45;7.60;99.90
51908;DHT22;39320;53.214;6.556;2024-01-30T00:53:11;7.60;99.90
51908;DHT22;39320;53.214;6.556;2024-01-30T00:55:37;7.60;99.90
51908;DHT22;39320;53.214;6.556;2024-01-30T00:58:03;7.60;99.90
51908;DHT22;39320;53.214;6.556;2024-01-30T01:00:29;7.60;99.90
51908;DHT22;39320;53.214;6.556;2024-01-30T01:03:00;7.60;99.90
51908;DHT22;39320;53.214;6.556;2024-01-30T01:05:25;7.60;99.90
51908;DHT22;39320;53.214;6.556;2024-01-30T01:07:51;7.80;99.90
51908;DHT22;39320;53.214;6.556;2024-01-30T01:10:17;7.60;99.90
51908;DHT22;39320;53.214;6.556;2024-01-30T01:12:44;7.60;99.90
51908;DHT22;39320;53.214;6.556;2024-01-30T01:15:10;7.60;99.90
51908;DHT22;39320;53.214;6.556;2024-01-30T01:17:37;7.60;99.90
51908;DHT22;39320;53.214;6.556;2024-01-30T01:20:04;7.60;99.90
51908;DHT22;39320;53.214;6.556;2024-01-30T01:22:31;7.60;99.90
51908;DHT22;39320;53.214;6.556;2024-01-30T01:24:56;7.60;99.90
51908;DHT22;39320;53.214;6.556;2024-01-30T01:27:22;7.60;99.90
51908;DHT22;39320;53.214;6.556;2024-01-30T01:29:48;7.60;99.90
51908;DHT22;39320;53.214;6.556;2024-01-30T01:32:14;7.60;99.90
51908;DHT22;39320;53.214;6.556;2024-01-30T01:34:39;7.60;99.90
51908;DHT22;39320;53.214;6.556;2024-01-30T01:37:05;7.60;99.90
51908;DHT22;39320;53.214;6.556;2024-01-30T01:39:31;7.60;99.90
51908;DHT22;39320;53.214;6.556;2024-01-30T01:41:56;7.50;99.90
51908;DHT22;39320;53.214;6.556;2024-01-30T01:44:22;7.60;99.90
51908;DHT22;39320;53.214;6.556;2024-01-30T01:46:48;7.50;99.90
51908;DHT22;39320;53.214;6.556;2024-01-30T01:49:14;7.50;99.90
51908;DHT22;39320;53.214;6.556;2024-01-30T01:51:41;7.50;99.90
51908;DHT22;39320;53.214;6.556;2024-01-30T01:54:09;7.50;99.90
51908;DHT22;39320;53.214;6.556;2024-01-30T01:56:34;7.60;99.90
51908;DHT22;39320;53.214;6.556;2024-01-30T01:59:05;7.50;99.90
51908;DHT22;39320;53.214;6.556;2024-01-30T02:01:32;7.60;99.90
51908;DHT22;39320;53.214;6.556;2024-01-30T02:03:59;7.60;99.90
51908;DHT22;39320;53.214;6.556;2024-01-30T02:06:26;7.60;99.90
51908;DHT22;39320;53.214;6.556;2024-01-30T02:08:52;7.50;99.90
51908;DHT22;39320;53.214;6.556;2024-01-30T02:11:18;7.50;99.90
51908;DHT22;39320;53.214;6.556;2024-01-30T02:13:45;7.60;99.90
51908;DHT22;39320;53.214;6.556;2024-01-30T02:16:11;7.50;99.90
51908;DHT22;39320;53.214;6.556;2024-01-30T02:18:36;7.50;99.90
51908;DHT22;39320;53.214;6.556;2024-01-30T02:21:07;7.50;99.90
51908;DHT22;39320;53.214;6.556;2024-01-30T02:23:33;7.50;99.90
51908;DHT22;39320;53.214;6.556;2024-01-30T02:26:00;7.50;99.90
51908;DHT22;39320;53.214;6.556;2024-01-30T02:28:26;7.50;99.90
51908;DHT22;39320;53.214;6.556;2024-01-30T02:30:53;7.50;99.90
51908;DHT22;39320;53.214;6.556;2024-01-30T02:33:19;7.50;99.90
51908;DHT22;39320;53.214;6.556;2024-01-30T02:35:45;7.50;99.90
51908;DHT22;39320;53.214;6.556;2024-01-30T02:38:10;7.50;99.90
51908;DHT22;39320;53.214;6.556;2024-01-30T02:40:36;7.70;99.90
51908;DHT22;39320;53.214;6.556;2024-01-30T02:43:03;7.50;99.90
51908;DHT22;39320;53.214;6.556;2024-01-30T02:45:28;7.50;99.90
51908;DHT22;39320;53.214;6.556;2024-01-30T02:47:54;7.50;99.90
51908;DHT22;39320;53.214;6.556;2024-01-30T02:50:20;7.60;99.90
51908;DHT22;39320;53.214;6.556;2024-01-30T02:52:46;7.50;99.90
51908;DHT22;39320;53.214;6.556;2024-01-30T02:55:11;7.50;99.90
51908;DHT22;39320;53.214;6.556;2024-01-30T02:57:40;7.60;99.90
51908;DHT22;39320;53.214;6.556;2024-01-30T03:00:06;7.50;99.90
51908;DHT22;39320;53.214;6.556;2024-01-30T03:02:35;7.60;99.90
51908;DHT22;39320;53.214;6.556;2024-01-30T03:05:00;7.50;99.90
51908;DHT22;39320;53.214;6.556;2024-01-30T03:07:26;7.60;99.90
51908;DHT22;39320;53.214;6.556;2024-01-30T03:09:52;7.60;99.90
51908;DHT22;39320;53.214;6.556;2024-01-30T03:12:18;7.60;99.90
51908;DHT22;39320;53.214;6.556;2024-01-30T03:14:43;7.60;99.90
51908;DHT22;39320;53.214;6.556;2024-01-30T03:17:09;7.60;99.90
51908;DHT22;39320;53.214;6.556;2024-01-30T03:19:35;7.60;99.90
51908;DHT22;39320;53.214;6.556;2024-01-30T03:22:01;7.60;99.90
51908;DHT22;39320;53.214;6.556;2024-01-30T03:24:26;7.70;99.90
51908;DHT22;39320;53.214;6.556;2024-01-30T03:26:52;7.60;99.90
51908;DHT22;39320;53.214;6.556;2024-01-30T03:29:18;7.60;99.90
51908;DHT22;39320;53.214;6.556;2024-01-30T03:31:44;7.60;99.90
51908;DHT22;39320;53.214;6.556;2024-01-30T03:34:11;7.60;99.90
51908;DHT22;39320;53.214;6.556;2024-01-30T03:36:36;7.60;99.90
51908;DHT22;39320;53.214;6.556;2024-01-30T03:39:02;7.70;99.90
51908;DHT22;39320;53.214;6.556;2024-01-30T03:41:28;7.60;99.90
51908;DHT22;39320;53.214;6.556;2024-01-30T03:43:54;7.70;99.90
51908;DHT22;39320;53.214;6.556;2024-01-30T03:46:19;7.70;99.90
51908;DHT22;39320;53.214;6.556;2024-01-30T03:48:45;7.70;99.90
51908;DHT22;39320;53.214;6.556;2024-01-30T03:51:11;7.70;99.90
51908;DHT22;39320;53.214;6.556;2024-01-30T03:53:41;7.70;99.90
51908;DHT22;39320;53.214;6.556;2024-01-30T03:56:07;7.70;99.90
51908;DHT22;39320;53.214;6.556;2024-01-30T03:58:33;7.70;99.90
51908;DHT22;39320;53.214;6.556;2024-01-30T04:00:59;7.70;99.90
51908;DHT22;39320;53.214;6.556;2024-01-30T04:03:25;7.70;99.90
51908;DHT22;39320;53.214;6.556;2024-01-30T04:05:53;7.70;99.90
51908;DHT22;39320;53.214;6.556;2024-01-30T04:08:19;7.60;99.90
51908;DHT22;39320;53.214;6.556;2024-01-30T04:10:46;7.60;99.90
51908;DHT22;39320;53.214;6.556;2024-01-30T04:13:11;7.70;99.90
51908;DHT22;39320;53.214;6.556;2024-01-30T04:15:37;7.60;99.90
51908;DHT22;39320;53.214;6.556;2024-01-30T04:18:03;7.60;99.90
51908;DHT22;39320;53.214;6.556;2024-01-30T04:20:29;7.70;99.90
51908;DHT22;39320;53.214;6.556;2024-01-30T04:22:55;7.70;99.90
51908;DHT22;39320;53.214;6.556;2024-01-30T04:25:21;7.70;99.90
51908;DHT22;39320;53.214;6.556;2024-01-30T04:27:46;7.70;99.90
51908;DHT22;39320;53.214;6.556;2024-01-30T04:30:12;7.80;99.90
51908;DHT22;39320;53.214;6.556;2024-01-30T04:32:38;7.80;99.90
51908;DHT22;39320;53.214;6.556;2024-01-30T04:35:04;7.80;99.90
51908;DHT22;39320;53.214;6.556;2024-01-30T04:37:30;7.80;99.90
51908;DHT22;39320;53.214;6.556;2024-01-30T04:39:56;7.80;99.90
51908;DHT22;39320;53.214;6.556;2024-01-30T04:42:22;7.90;99.90
51908;DHT22;39320;53.214;6.556;2024-01-30T04:44:47;7.90;99.90
51908;DHT22;39320;53.214;6.556;2024-01-30T04:47:16;7.90;99.90
51908;DHT22;39320;53.214;6.556;2024-01-30T04:49:41;7.90;99.90
51908;DHT22;39320;53.214;6.556;2024-01-30T04:52:08;7.90;99.90
51908;DHT22;39320;53.214;6.556;2024-01-30T04:54:35;7.90;99.90
51908;DHT22;39320;53.214;6.556;2024-01-30T04:57:01;7.90;99.90
51908;DHT22;39320;53.214;6.556;2024-01-30T04:59:27;7.90;99.90
51908;DHT22;39320;53.214;6.556;2024-01-30T05:01:53;7.90;99.90
51908;DHT22;39320;53.214;6.556;2024-01-30T05:04:19;7.90;99.90
51908;DHT22;39320;53.214;6.556;2024-01-30T05:06:45;7.90;99.90
51908;DHT22;39320;53.214;6.556;2024-01-30T05:09:10;7.90;99.90
51908;DHT22;39320;53.214;6.556;2024-01-30T05:11:40;7.90;99.90
51908;DHT22;39320;53.214;6.556;2024-01-30T05:14:06;8.10;99.90
51908;DHT22;39320;53.214;6.556;2024-01-30T05:16:32;7.90;99.90
51908;DHT22;39320;53.214;6.556;2024-01-30T05:18:58;7.90;99.90
51908;DHT22;39320;53.214;6.556;2024-01-30T05:21:24;7.90;99.90
51908;DHT22;39320;53.214;6.556;2024-01-30T05:23:50;8.00;99.90
51908;DHT22;39320;53.214;6.556;2024-01-30T05:26:16;8.00;99.90
51908;DHT22;39320;53.214;6.556;2024-01-30T05:28:42;8.00;99.90
51908;DHT22;39320;53.214;6.556;2024-01-30T05:31:10;8.00;99.90
51908;DHT22;39320;53.214;6.556;2024-01-30T05:33:36;8.00;99.90
51908;DHT22;39320;53.214;6.556;2024-01-30T05:36:02;8.00;99.90
51908;DHT22;39320;53.214;6.556;2024-01-30T05:38:29;8.00;99.90
51908;DHT22;39320;53.214;6.556;2024-01-30T05:40:55;8.00;99.90
51908;DHT22;39320;53.214;6.556;2024-01-30T05:43:20;8.00;99.90
51908;DHT22;39320;53.214;6.556;2024-01-30T05:45:46;8.00;99.90
51908;DHT22;39320;53.214;6.556;2024-01-30T05:48:12;8.00;99.90
51908;DHT22;39320;53.214;6.556;2024-01-30T05:50:37;8.00;99.90
51908;DHT22;39320;53.214;6.556;2024-01-30T05:53:03;8.30;99.90
51908;DHT22;39320;53.214;6.556;2024-01-30T05:55:29;8.00;99.90
51908;DHT22;39320;53.214;6.556;2024-01-30T05:57:55;8.00;99.90
51908;DHT22;39320;53.214;6.556;2024-01-30T06:00:21;8.00;99.90
51908;DHT22;39320;53.214;6.556;2024-01-30T06:02:46;8.10;99.90
51908;DHT22;39320;53.214;6.556;2024-01-30T06:05:12;8.00;99.90
51908;DHT22;39320;53.214;6.556;2024-01-30T06:07:38;8.00;99.90
51908;DHT22;39320;53.214;6.556;2024-01-30T06:10:04;8.00;99.90
51908;DHT22;39320;53.214;6.556;2024-01-30T06:12:30;8.00;99.90
51908;DHT22;39320;53.214;6.556;2024-01-30T06:14:55;8.00;99.90
51908;DHT22;39320;53.214;6.556;2024-01-30T06:17:23;8.00;99.90
51908;DHT22;39320;53.214;6.556;2024-01-30T06:19:49;8.00;99.90
51908;DHT22;39320;53.214;6.556;2024-01-30T06:22:15;8.00;99.90
51908;DHT22;39320;53.214;6.556;2024-01-30T06:24:41;8.00;99.90
51908;DHT22;39320;53.214;6.556;2024-01-30T06:27:07;8.00;99.90
51908;DHT22;39320;53.214;6.556;2024-01-30T06:29:32;8.00;99.90
51908;DHT22;39320;53.214;6.556;2024-01-30T06:31:59;8.00;99.90
51908;DHT22;39320;53.214;6.556;2024-01-30T06:34:24;8.00;99.90
51908;DHT22;39320;53.214;6.556;2024-01-30T06:36:51;8.00;99.90
51908;DHT22;39320;53.214;6.556;2024-01-30T06:39:17;8.00;99.90
51908;DHT22;39320;53.214;6.556;2024-01-30T06:41:43;8.00;99.90
51908;DHT22;39320;53.214;6.556;2024-01-30T06:44:09;8.10;99.90
51908;DHT22;39320;53.214;6.556;2024-01-30T06:46:35;8.00;99.90
51908;DHT22;39320;53.214;6.556;2024-01-30T06:49:01;8.10;99.90
51908;DHT22;39320;53.214;6.556;2024-01-30T06:51:27;8.10;99.90
51908;DHT22;39320;53.214;6.556;2024-01-30T06:53:52;8.10;99.90
51908;DHT22;39320;53.214;6.556;2024-01-30T06:56:18;8.10;99.90
51908;DHT22;39320;53.214;6.556;2024-01-30T06:58:49;8.10;99.90
51908;DHT22;39320;53.214;6.556;2024-01-30T07:01:15;8.10;99.90
51908;DHT22;39320;53.214;6.556;2024-01-30T07:03:42;8.10;99.90
51908;DHT22;39320;53.214;6.556;2024-01-30T07:06:08;8.10;99.90
51908;DHT22;39320;53.214;6.556;2024-01-30T07:08:34;8.10;99.90
51908;DHT22;39320;53.214;6.556;2024-01-30T07:10:59;8.10;99.90
51908;DHT22;39320;53.214;6.556;2024-01-30T07:13:25;8.10;99.90
51908;DHT22;39320;53.214;6.556;2024-01-30T07:15:51;8.10;99.90
51908;DHT22;39320;53.214;6.556;2024-01-30T07:18:17;8.10;99.90
51908;DHT22;39320;53.214;6.556;2024-01-30T07:20:42;8.20;99.90
51908;DHT22;39320;53.214;6.556;2024-01-30T07:23:14;8.10;99.90
51908;DHT22;39320;53.214;6.556;2024-01-30T07:25:42;8.10;99.90
51908;DHT22;39320;53.214;6.556;2024-01-30T07:28:08;8.20;99.90
51908;DHT22;39320;53.214;6.556;2024-01-30T07:30:42;8.20;99.90
51908;DHT22;39320;53.214;6.556;2024-01-30T07:33:08;8.20;99.90
51908;DHT22;39320;53.214;6.556;2024-01-30T07:35:34;8.20;99.90
51908;DHT22;39320;53.214;6.556;2024-01-30T07:38:00;8.20;99.90
51908;DHT22;39320;53.214;6.556;2024-01-30T07:40:26;8.20;99.90
51908;DHT22;39320;53.214;6.556;2024-01-30T07:42:53;8.20;99.90
51908;DHT22;39320;53.214;6.556;2024-01-30T07:45:19;8.20;99.90
51908;DHT22;39320;53.214;6.556;2024-01-30T07:47:50;8.40;99.90
51908;DHT22;39320;53.214;6.556;2024-01-30T07:50:16;8.20;99.90
51908;DHT22;39320;53.214;6.556;2024-01-30T07:52:42;8.20;99.90
51908;DHT22;39320;53.214;6.556;2024-01-30T07:55:08;8.20;99.90
51908;DHT22;39320;53.214;6.556;2024-01-30T07:57:34;8.20;99.90
51908;DHT22;39320;53.214;6.556;2024-01-30T08:00:00;8.20;99.90
51908;DHT22;39320;53.214;6.556;2024-01-30T08:02:26;8.30;99.90
51908;DHT22;39320;53.214;6.556;2024-01-30T08:04:52;8.30;99.90
51908;DHT22;39320;53.214;6.556;2024-01-30T08:07:17;8.30;99.90
51908;DHT22;39320;53.214;6.556;2024-01-30T08:09:43;8.30;99.90
51908;DHT22;39320;53.214;6.556;2024-01-30T08:12:09;8.30;99.90
51908;DHT22;39320;53.214;6.556;2024-01-30T08:14:35;8.30;99.90
51908;DHT22;39320;53.214;6.556;2024-01-30T08:17:01;8.30;99.90
51908;DHT22;39320;53.214;6.556;2024-01-30T08:19:26;8.30;99.90
51908;DHT22;39320;53.214;6.556;2024-01-30T08:21:52;8.40;99.90
51908;DHT22;39320;53.214;6.556;2024-01-30T08:24:18;8.40;99.90
51908;DHT22;39320;53.214;6.556;2024-01-30T08:26:43;8.40;99.90
51908;DHT22;39320;53.214;6.556;2024-01-30T08:29:09;8.10;99.90
51908;DHT22;39320;53.214;6.556;2024-01-30T08:31:35;8.40;99.90
51908;DHT22;39320;53.214;6.556;2024-01-30T08:34:01;8.40;99.90
51908;DHT22;39320;53.214;6.556;2024-01-30T08:36:27;8.40;99.90
51908;DHT22;39320;53.214;6.556;2024-01-30T08:38:53;8.50;99.90
51908;DHT22;39320;53.214;6.556;2024-01-30T08:41:18;8.40;99.90
51908;DHT22;39320;53.214;6.556;2024-01-30T08:43:44;8.40;99.90
51908;DHT22;39320;53.214;6.556;2024-01-30T08:46:11;8.40;99.90
51908;DHT22;39320;53.214;6.556;2024-01-30T08:48:36;8.40;99.90
51908;DHT22;39320;53.214;6.556;2024-01-30T08:51:02;8.40;99.90
51908;DHT22;39320;53.214;6.556;2024-01-30T08:53:28;8.50;99.90
51908;DHT22;39320;53.214;6.556;2024-01-30T08:55:54;8.50;99.90
51908;DHT22;39320;53.214;6.556;2024-01-30T08:58:19;8.50;99.90
51908;DHT22;39320;53.214;6.556;2024-01-30T09:00:45;8.50;99.90
51908;DHT22;39320;53.214;6.556;2024-01-30T09:03:11;8.50;99.90
51908;DHT22;39320;53.214;6.556;2024-01-30T09:05:36;8.50;99.90
51908;DHT22;39320;53.214;6.556;2024-01-30T09:08:02;8.60;99.90
51908;DHT22;39320;53.214;6.556;2024-01-30T09:10:28;8.60;99.90
51908;DHT22;39320;53.214;6.556;2024-01-30T09:12:54;8.60;99.90
51908;DHT22;39320;53.214;6.556;2024-01-30T09:15:19;8.60;99.90
51908;DHT22;39320;53.214;6.556;2024-01-30T09:17:45;8.60;99.90
51908;DHT22;39320;53.214;6.556;2024-01-30T09:20:11;8.60;99.90
51908;DHT22;39320;53.214;6.556;2024-01-30T09:22:37;8.60;99.90
51908;DHT22;39320;53.214;6.556;2024-01-30T09:25:02;8.60;99.90
51908;DHT22;39320;53.214;6.556;2024-01-30T09:27:28;8.60;99.90
51908;DHT22;39320;53.214;6.556;2024-01-30T09:29:54;8.70;99.90
51908;DHT22;39320;53.214;6.556;2024-01-30T09:32:20;8.70;99.90
51908;DHT22;39320;53.214;6.556;2024-01-30T09:34:46;8.70;99.90
51908;DHT22;39320;53.214;6.556;2024-01-30T09:37:11;8.70;99.90
51908;DHT22;39320;53.214;6.556;2024-01-30T09:39:37;8.70;99.90
51908;DHT22;39320;53.214;6.556;2024-01-30T09:42:25;8.70;99.90
51908;DHT22;39320;53.214;6.556;2024-01-30T09:44:53;8.80;99.90
51908;DHT22;39320;53.214;6.556;2024-01-30T09:47:19;8.80;99.90
51908;DHT22;39320;53.214;6.556;2024-01-30T09:49:45;8.80;99.90
51908;DHT22;39320;53.214;6.556;2024-01-30T09:52:12;8.80;99.90
51908;DHT22;39320;53.214;6.556;2024-01-30T09:54:38;8.80;99.90
51908;DHT22;39320;53.214;6.556;2024-01-30T09:57:05;8.90;99.90
51908;DHT22;39320;53.214;6.556;2024-01-30T09:59:31;8.90;99.90
51908;DHT22;39320;53.214;6.556;2024-01-30T10:01:57;9.00;99.90
51908;DHT22;39320;53.214;6.556;2024-01-30T10:04:23;9.00;99.90
51908;DHT22;39320;53.214;6.556;2024-01-30T10:06:50;9.00;99.90
51908;DHT22;39320;53.214;6.556;2024-01-30T10:09:16;9.10;99.90
51908;DHT22;39320;53.214;6.556;2024-01-30T10:11:42;9.20;99.90
51908;DHT22;39320;53.214;6.556;2024-01-30T10:14:08;9.20;99.90
51908;DHT22;39320;53.214;6.556;2024-01-30T10:16:36;9.20;99.90
51908;DHT22;39320;53.214;6.556;2024-01-30T10:19:02;9.30;99.90
51908;DHT22;39320;53.214;6.556;2024-01-30T10:21:30;9.40;99.90
51908;DHT22;39320;53.214;6.556;2024-01-30T10:23:55;9.40;99.90
51908;DHT22;39320;53.214;6.556;2024-01-30T10:26:21;9.40;99.90
51908;DHT22;39320;53.214;6.556;2024-01-30T10:28:48;9.50;99.90
51908;DHT22;39320;53.214;6.556;2024-01-30T10:31:18;9.50;99.90
51908;DHT22;39320;53.214;6.556;2024-01-30T10:33:44;9.50;99.90
51908;DHT22;39320;53.214;6.556;2024-01-30T10:36:13;9.60;99.90
51908;DHT22;39320;53.214;6.556;2024-01-30T10:38:42;9.60;99.90
51908;DHT22;39320;53.214;6.556;2024-01-30T10:41:08;9.60;99.90
51908;DHT22;39320;53.214;6.556;2024-01-30T10:43:41;9.60;99.90
51908;DHT22;39320;53.214;6.556;2024-01-30T10:46:18;9.70;99.90
51908;DHT22;39320;53.214;6.556;2024-01-30T10:48:48;9.70;99.90
51908;DHT22;39320;53.214;6.556;2024-01-30T10:51:16;9.80;99.90
51908;DHT22;39320;53.214;6.556;2024-01-30T10:53:46;9.80;99.90
51908;DHT22;39320;53.214;6.556;2024-01-30T10:56:13;9.80;99.90
51908;DHT22;39320;53.214;6.556;2024-01-30T10:58:39;9.80;99.90
51908;DHT22;39320;53.214;6.556;2024-01-30T11:01:06;9.90;99.90
51908;DHT22;39320;53.214;6.556;2024-01-30T11:03:33;9.90;99.90
51908;DHT22;39320;53.214;6.556;2024-01-30T11:06:02;9.90;99.90
51908;DHT22;39320;53.214;6.556;2024-01-30T11:08:28;9.90;99.90
51908;DHT22;39320;53.214;6.556;2024-01-30T11:10:58;9.90;99.90
51908;DHT22;39320;53.214;6.556;2024-01-30T11:13:31;9.90;99.90
51908;DHT22;39320;53.214;6.556;2024-01-30T11:16:03;10.00;99.90
51908;DHT22;39320;53.214;6.556;2024-01-30T11:18:31;9.90;99.90
51908;DHT22;39320;53.214;6.556;2024-01-30T11:20:58;9.90;99.90
51908;DHT22;39320;53.214;6.556;2024-01-30T11:23:26;9.90;99.90
51908;DHT22;39320;53.214;6.556;2024-01-30T11:25:53;9.90;99.90
51908;DHT22;39320;53.214;6.556;2024-01-30T11:28:18;10.00;99.90
51908;DHT22;39320;53.214;6.556;2024-01-30T11:30:46;10.00;99.90
51908;DHT22;39320;53.214;6.556;2024-01-30T11:33:13;10.10;99.90
51908;DHT22;39320;53.214;6.556;2024-01-30T11:35:40;10.20;99.90
51908;DHT22;39320;53.214;6.556;2024-01-30T11:38:16;10.20;99.90
51908;DHT22;39320;53.214;6.556;2024-01-30T11:40:41;10.10;99.90
51908;DHT22;39320;53.214;6.556;2024-01-30T11:43:09;10.10;99.90
51908;DHT22;39320;53.214;6.556;2024-01-30T11:45:35;10.00;99.90
51908;DHT22;39320;53.214;6.556;2024-01-30T11:48:02;10.00;99.90
51908;DHT22;39320;53.214;6.556;2024-01-30T11:50:35;10.00;99.90
51908;DHT22;39320;53.214;6.556;2024-01-30T11:53:04;10.00;99.90
51908;DHT22;39320;53.214;6.556;2024-01-30T11:55:30;9.90;99.90
51908;DHT22;39320;53.214;6.556;2024-01-30T11:57:59;9.90;99.90
51908;DHT22;39320;53.214;6.556;2024-01-30T12:00:25;9.90;99.90
51908;DHT22;39320;53.214;6.556;2024-01-30T12:02:52;9.80;99.90
51908;DHT22;39320;53.214;6.556;2024-01-30T12:05:21;9.90;99.90
51908;DHT22;39320;53.214;6.556;2024-01-30T12:07:47;9.80;99.90
51908;DHT22;39320;53.214;6.556;2024-01-30T12:10:14;9.80;99.90
51908;DHT22;39320;53.214;6.556;2024-01-30T12:12:42;9.80;99.90
51908;DHT22;39320;53.214;6.556;2024-01-30T12:15:08;9.80;99.90
51908;DHT22;39320;53.214;6.556;2024-01-30T12:17:34;9.80;99.90
51908;DHT22;39320;53.214;6.556;2024-01-30T12:20:07;9.70;99.90
51908;DHT22;39320;53.214;6.556;2024-01-30T12:22:40;9.70;99.90
51908;DHT22;39320;53.214;6.556;2024-01-30T12:25:10;9.70;99.90
51908;DHT22;39320;53.214;6.556;2024-01-30T12:27:37;9.60;99.90
51908;DHT22;39320;53.214;6.556;2024-01-30T12:30:10;9.60;99.90
51908;DHT22;39320;53.214;6.556;2024-01-30T12:32:37;9.60;99.90
51908;DHT22;39320;53.214;6.556;2024-01-30T12:35:07;9.60;99.90
51908;DHT22;39320;53.214;6.556;2024-01-30T12:37:34;9.60;99.90
51908;DHT22;39320;53.214;6.556;2024-01-30T12:40:00;9.60;99.90
51908;DHT22;39320;53.214;6.556;2024-01-30T12:42:27;9.60;99.90
51908;DHT22;39320;53.214;6.556;2024-01-30T12:44:53;9.60;99.90
51908;DHT22;39320;53.214;6.556;2024-01-30T12:47:21;9.60;99.90
51908;DHT22;39320;53.214;6.556;2024-01-30T12:49:47;9.60;99.90
51908;DHT22;39320;53.214;6.556;2024-01-30T12:52:16;9.60;99.90
51908;DHT22;39320;53.214;6.556;2024-01-30T12:54:42;9.60;99.90
51908;DHT22;39320;53.214;6.556;2024-01-30T12:57:08;9.60;99.90
51908;DHT22;39320;53.214;6.556;2024-01-30T12:59:33;9.60;99.90
51908;DHT22;39320;53.214;6.556;2024-01-30T13:02:00;9.60;99.90
51908;DHT22;39320;53.214;6.556;2024-01-30T13:04:27;9.60;99.90
51908;DHT22;39320;53.214;6.556;2024-01-30T13:06:53;9.60;99.90
51908;DHT22;39320;53.214;6.556;2024-01-30T13:09:19;9.60;99.90
51908;DHT22;39320;53.214;6.556;2024-01-30T13:11:45;9.60;99.90
51908;DHT22;39320;53.214;6.556;2024-01-30T13:14:11;9.60;99.90
51908;DHT22;39320;53.214;6.556;2024-01-30T13:16:36;9.60;99.90
51908;DHT22;39320;53.214;6.556;2024-01-30T13:19:02;9.60;99.90
51908;DHT22;39320;53.214;6.556;2024-01-30T13:21:28;9.60;99.90
51908;DHT22;39320;53.214;6.556;2024-01-30T13:23:54;9.50;99.90
51908;DHT22;39320;53.214;6.556;2024-01-30T13:26:21;9.50;99.90
51908;DHT22;39320;53.214;6.556;2024-01-30T13:28:46;9.50;99.90
51908;DHT22;39320;53.214;6.556;2024-01-30T13:31:16;9.40;99.90
51908;DHT22;39320;53.214;6.556;2024-01-30T13:33:41;9.40;99.90
51908;DHT22;39320;53.214;6.556;2024-01-30T13:36:08;9.50;99.90
51908;DHT22;39320;53.214;6.556;2024-01-30T13:38:34;9.50;99.90
51908;DHT22;39320;53.214;6.556;2024-01-30T13:41:00;9.50;99.90
51908;DHT22;39320;53.214;6.556;2024-01-30T13:43:26;9.40;99.90
51908;DHT22;39320;53.214;6.556;2024-01-30T13:45:52;9.40;99.90
51908;DHT22;39320;53.214;6.556;2024-01-30T13:48:19;9.40;99.90
51908;DHT22;39320;53.214;6.556;2024-01-30T13:50:45;9.40;99.90
51908;DHT22;39320;53.214;6.556;2024-01-30T13:53:11;9.40;99.90
51908;DHT22;39320;53.214;6.556;2024-01-30T13:55:37;9.40;99.90
51908;DHT22;39320;53.214;6.556;2024-01-30T13:58:06;9.40;99.90
51908;DHT22;39320;53.214;6.556;2024-01-30T14:00:32;9.40;99.90
51908;DHT22;39320;53.214;6.556;2024-01-30T14:02:59;9.40;99.90
51908;DHT22;39320;53.214;6.556;2024-01-30T14:05:26;9.40;99.90
51908;DHT22;39320;53.214;6.556;2024-01-30T14:07:53;9.40;99.90
51908;DHT22;39320;53.214;6.556;2024-01-30T14:10:19;9.40;99.90
51908;DHT22;39320;53.214;6.556;2024-01-30T14:12:45;9.40;99.90
51908;DHT22;39320;53.214;6.556;2024-01-30T14:15:13;9.40;99.90
51908;DHT22;39320;53.214;6.556;2024-01-30T14:17:40;9.30;99.90
51908;DHT22;39320;53.214;6.556;2024-01-30T14:20:07;9.30;99.90
51908;DHT22;39320;53.214;6.556;2024-01-30T14:22:36;9.30;99.90
51908;DHT22;39320;53.214;6.556;2024-01-30T14:25:02;9.30;99.90
51908;DHT22;39320;53.214;6.556;2024-01-30T14:27:31;9.30;99.90
51908;DHT22;39320;53.214;6.556;2024-01-30T14:29:57;9.20;99.90
51908;DHT22;39320;53.214;6.556;2024-01-30T14:32:23;9.20;99.90
51908;DHT22;39320;53.214;6.556;2024-01-30T14:34:50;9.20;99.90
51908;DHT22;39320;53.214;6.556;2024-01-30T14:37:16;9.10;99.90
51908;DHT22;39320;53.214;6.556;2024-01-30T14:39:42;9.10;99.90
51908;DHT22;39320;53.214;6.556;2024-01-30T14:42:08;9.00;99.90
51908;DHT22;39320;53.214;6.556;2024-01-30T14:44:34;9.00;99.90
51908;DHT22;39320;53.214;6.556;2024-01-30T14:47:00;9.00;99.90
51908;DHT22;39320;53.214;6.556;2024-01-30T14:49:27;8.90;99.90
51908;DHT22;39320;53.214;6.556;2024-01-30T14:51:53;8.90;99.90
51908;DHT22;39320;53.214;6.556;2024-01-30T14:54:19;8.90;99.90
51908;DHT22;39320;53.214;6.556;2024-01-30T14:56:45;8.80;99.90
51908;DHT22;39320;53.214;6.556;2024-01-30T14:59:11;8.80;99.90
51908;DHT22;39320;53.214;6.556;2024-01-30T15:01:36;8.80;99.90
51908;DHT22;39320;53.214;6.556;2024-01-30T15:04:02;8.80;99.90
51908;DHT22;39320;53.214;6.556;2024-01-30T15:06:28;8.70;99.90
51908;DHT22;39320;53.214;6.556;2024-01-30T15:08:54;8.70;99.90
51908;DHT22;39320;53.214;6.556;2024-01-30T15:11:20;8.80;99.90
51908;DHT22;39320;53.214;6.556;2024-01-30T15:13:46;8.80;99.90
51908;DHT22;39320;53.214;6.556;2024-01-30T15:16:12;8.70;99.90
51908;DHT22;39320;53.214;6.556;2024-01-30T15:18:37;8.70;99.90
51908;DHT22;39320;53.214;6.556;2024-01-30T15:21:03;8.70;99.90
51908;DHT22;39320;53.214;6.556;2024-01-30T15:23:29;8.70;99.90
51908;DHT22;39320;53.214;6.556;2024-01-30T15:25:55;8.70;99.90
51908;DHT22;39320;53.214;6.556;2024-01-30T15:28:23;8.30;99.90
51908;DHT22;39320;53.214;6.556;2024-01-30T15:30:58;8.80;99.90
51908;DHT22;39320;53.214;6.556;2024-01-30T15:33:25;8.80;99.90
51908;DHT22;39320;53.214;6.556;2024-01-30T15:35:51;8.80;99.90
51908;DHT22;39320;53.214;6.556;2024-01-30T15:38:19;8.70;99.90
51908;DHT22;39320;53.214;6.556;2024-01-30T15:40:46;8.70;99.90